Time;durP1;ratioP1;P1;durP2;ratioP2;P2;SDS_P1;SDS_P2;PMS_P1;PMS_P2;Temp;Humidity;BMP_temperature;BMP_pressure;BME280_temperature;BME280_humidity;BME280_pressure;Samples;Min_cycle;Max_cycle;Signal;HPM_P1;HPM_P2
2024/01/31 00:00:11;;;;;;;19.40;10.30;;;9.00;1.00;;;;;;4989678;28;20188;-88
2024/01/31 00:02:37;;;;;;;18.80;11.63;;;9.00;1.00;;;;;;4990319;28;20442;-87
2024/01/31 00:05:05;;;;;;;17.30;10.60;;;9.00;1.00;;;;;;4991393;28;20446;-87
2024/01/31 00:07:31;;;;;;;21.13;11.73;;;9.00;1.00;;;;;;4985993;28;20678;-88
2024/01/31 00:09:57;;;;;;;22.73;12.40;;;9.00;1.00;;;;;;4989023;28;20447;-87
2024/01/31 00:12:22;;;;;;;21.77;12.93;;;9.00;1.00;;;;;;4987021;28;20192;-87
2024/01/31 00:14:48;;;;;;;19.47;12.87;;;9.00;1.00;;;;;;4991016;28;20724;-87
2024/01/31 00:17:13;;;;;;;21.07;14.30;;;8.90;1.00;;;;;;4988584;28;20215;-87
2024/01/31 00:19:39;;;;;;;22.00;12.90;;;8.90;1.00;;;;;;4989893;28;20654;-87
2024/01/31 00:22:04;;;;;;;23.03;13.73;;;8.90;1.00;;;;;;4987191;28;20195;-87
2024/01/31 00:24:30;;;;;;;24.10;12.63;;;8.90;1.00;;;;;;4990724;28;20242;-87
2024/01/31 00:26:55;;;;;;;25.50;14.53;;;8.90;1.00;;;;;;4990460;28;20974;-87
2024/01/31 00:29:21;;;;;;;22.13;14.43;;;8.90;1.00;;;;;;4985375;28;20206;-87
2024/01/31 00:31:46;;;;;;;22.27;15.47;;;8.80;1.00;;;;;;4989167;28;20450;-87
2024/01/31 00:34:12;;;;;;;21.93;14.20;;;8.80;1.00;;;;;;4988400;28;20274;-87
2024/01/31 00:36:38;;;;;;;23.23;13.70;;;8.80;1.00;;;;;;4988949;28;20191;-87
2024/01/31 00:39:05;;;;;;;27.77;16.43;;;8.90;1.00;;;;;;4989002;28;20231;-87
2024/01/31 00:41:31;;;;;;;27.27;15.40;;;8.90;1.00;;;;;;4989734;28;20442;-85
2024/01/31 00:43:56;;;;;;;29.80;15.80;;;8.80;1.00;;;;;;4989615;28;20935;-87
2024/01/31 00:46:22;;;;;;;28.57;17.70;;;8.80;1.00;;;;;;4988977;28;20545;-86
2024/01/31 00:48:47;;;;;;;29.33;16.50;;;8.80;1.00;;;;;;4993737;28;20203;-87
2024/01/31 00:51:13;;;;;;;27.30;15.30;;;8.80;1.00;;;;;;4985167;28;20270;-87
2024/01/31 00:53:41;;;;;;;29.13;16.70;;;8.80;1.00;;;;;;4993084;28;20638;-87
2024/01/31 00:56:08;;;;;;;26.73;17.53;;;8.80;1.00;;;;;;4991956;28;20661;-87
2024/01/31 00:58:34;;;;;;;31.13;15.80;;;8.80;1.00;;;;;;4989889;28;20549;-88
2024/01/31 01:01:00;;;;;;;27.43;16.07;;;8.80;1.00;;;;;;4992210;28;20533;-87
2024/01/31 01:03:26;;;;;;;26.73;16.70;;;8.80;1.00;;;;;;4986705;28;20447;-87
2024/01/31 01:05:51;;;;;;;29.57;15.63;;;8.80;1.00;;;;;;4992109;28;20499;-87
2024/01/31 01:08:17;;;;;;;27.43;16.03;;;8.80;1.00;;;;;;4986249;28;20242;-87
2024/01/31 01:10:42;;;;;;;32.13;16.80;;;8.80;1.00;;;;;;4992372;28;20189;-87
2024/01/31 01:13:08;;;;;;;30.13;17.80;;;8.70;1.00;;;;;;4993040;28;20556;-87
2024/01/31 01:15:35;;;;;;;27.73;15.70;;;8.70;1.00;;;;;;4991810;28;20235;-87
2024/01/31 01:18:01;;;;;;;26.40;16.83;;;8.70;1.00;;;;;;4993375;28;20220;-87
2024/01/31 01:20:29;;;;;;;30.30;17.67;;;8.70;1.00;;;;;;4993153;28;20489;-88
2024/01/31 01:22:57;;;;;;;30.73;18.77;;;8.60;1.00;;;;;;4989777;28;20359;-87
2024/01/31 01:25:23;;;;;;;29.07;17.20;;;8.60;1.00;;;;;;4984181;28;20480;-87
2024/01/31 01:27:51;;;;;;;25.63;16.03;;;8.60;1.00;;;;;;4988894;28;20450;-87
2024/01/31 01:30:18;;;;;;;28.30;16.00;;;8.60;1.00;;;;;;4992643;28;20188;-88
2024/01/31 01:32:43;;;;;;;30.73;17.27;;;8.60;1.00;;;;;;4993040;28;20434;-87
2024/01/31 01:35:09;;;;;;;34.03;18.13;;;8.60;1.00;;;;;;4989420;28;20937;-87
2024/01/31 01:37:34;;;;;;;32.00;17.97;;;8.60;1.00;;;;;;4989665;28;20220;-88
2024/01/31 01:40:00;;;;;;;29.70;18.23;;;8.50;1.00;;;;;;4983500;28;20184;-87
2024/01/31 01:42:28;;;;;;;29.00;17.43;;;8.50;1.00;;;;;;4991177;28;20602;-87
2024/01/31 01:44:54;;;;;;;31.07;17.27;;;8.50;1.00;;;;;;5007849;28;20884;-87
2024/01/31 01:47:19;;;;;;;30.83;18.40;;;8.50;1.00;;;;;;4991949;28;20510;-87
2024/01/31 01:49:46;;;;;;;29.73;18.17;;;8.50;1.00;;;;;;4992171;28;20263;-87
2024/01/31 01:52:13;;;;;;;27.85;17.15;;;8.50;1.00;;;;;;4991152;28;20188;-87
2024/01/31 01:54:39;;;;;;;31.30;17.93;;;8.50;1.00;;;;;;4989513;28;20172;-88
2024/01/31 01:57:05;;;;;;;29.60;17.90;;;8.50;1.00;;;;;;4988665;28;20439;-87
2024/01/31 01:59:32;;;;;;;31.53;18.93;;;8.50;1.00;;;;;;4993279;28;20443;-87
2024/01/31 02:01:58;;;;;;;33.00;19.97;;;8.50;1.00;;;;;;4991629;28;20444;-87
2024/01/31 02:04:24;;;;;;;30.87;19.53;;;8.50;1.00;;;;;;4992012;28;20455;-87
2024/01/31 02:06:51;;;;;;;39.80;20.00;;;8.50;1.00;;;;;;4992140;28;20957;-87
2024/01/31 02:09:17;;;;;;;37.00;19.93;;;8.40;1.00;;;;;;4992024;28;20203;-87
2024/01/31 02:11:44;;;;;;;36.37;20.50;;;8.40;1.00;;;;;;4989569;28;20518;-87
2024/01/31 02:14:09;;;;;;;33.10;19.10;;;8.40;1.00;;;;;;4991750;28;20510;-88
2024/01/31 02:16:35;;;;;;;34.83;19.73;;;8.40;1.00;;;;;;4990009;28;20532;-86
2024/01/31 02:19:00;;;;;;;37.23;20.10;;;8.50;1.00;;;;;;4990779;28;20719;-87
2024/01/31 02:21:28;;;;;;;34.77;21.07;;;8.50;1.00;;;;;;4992020;28;20187;-87
2024/01/31 02:23:53;;;;;;;32.87;19.30;;;8.50;1.00;;;;;;4991039;28;20176;-87
2024/01/31 02:26:19;;;;;;;37.00;22.37;;;8.50;1.00;;;;;;4989373;28;20471;-87
2024/01/31 02:28:45;;;;;;;39.97;20.93;;;8.40;1.00;;;;;;4981998;28;20228;-88
2024/01/31 02:31:10;;;;;;;43.20;23.37;;;8.40;1.00;;;;;;4987073;28;20813;-87
2024/01/31 02:33:36;;;;;;;41.27;23.80;;;8.40;1.00;;;;;;4992456;28;20255;-87
2024/01/31 02:36:02;;;;;;;40.50;22.80;;;8.40;1.00;;;;;;4992086;28;20263;-86
2024/01/31 02:38:27;;;;;;;45.30;23.57;;;8.40;1.00;;;;;;4989665;28;20239;-87
2024/01/31 02:40:53;;;;;;;44.70;23.80;;;8.40;1.00;;;;;;4992016;28;20435;-87
2024/01/31 02:43:18;;;;;;;43.57;23.10;;;8.40;1.00;;;;;;4992334;28;20200;-87
2024/01/31 02:45:44;;;;;;;44.27;25.20;;;8.40;1.00;;;;;;4990045;28;20704;-87
2024/01/31 02:48:09;;;;;;;45.60;25.20;;;8.40;1.00;;;;;;4989446;28;20474;-87
2024/01/31 02:50:38;;;;;;;44.20;24.40;;;8.40;1.00;;;;;;4990084;28;20238;-87
2024/01/31 02:53:04;;;;;;;43.10;23.30;;;8.40;1.00;;;;;;4990686;28;20192;-88
2024/01/31 02:55:29;;;;;;;50.23;26.27;;;8.40;1.00;;;;;;4991642;28;20435;-87
2024/01/31 02:57:55;;;;;;;50.43;23.63;;;8.40;1.00;;;;;;4990653;28;20284;-87
2024/01/31 03:00:20;;;;;;;44.73;24.07;;;8.40;1.00;;;;;;4991320;28;20646;-87
2024/01/31 03:02:46;;;;;;;48.10;26.63;;;8.40;1.00;;;;;;4989390;28;20192;-87
2024/01/31 03:05:12;;;;;;;47.57;25.30;;;8.40;1.00;;;;;;4990181;28;20192;-87
2024/01/31 03:07:38;;;;;;;47.17;25.03;;;8.40;1.00;;;;;;4987481;28;20585;-87
2024/01/31 03:10:04;;;;;;;46.70;24.20;;;8.40;1.00;;;;;;4990820;28;20439;-87
2024/01/31 03:12:30;;;;;;;45.07;24.20;;;8.40;1.00;;;;;;4991182;28;20815;-87
2024/01/31 03:14:56;;;;;;;45.70;23.87;;;8.40;1.00;;;;;;4986870;28;20446;-87
2024/01/31 03:17:21;;;;;;;47.70;24.70;;;8.40;1.00;;;;;;4987861;28;20193;-87
2024/01/31 03:19:47;;;;;;;42.43;22.70;;;8.40;1.00;;;;;;4990854;28;20443;-87
2024/01/31 03:22:12;;;;;;;45.23;23.70;;;8.40;1.00;;;;;;4991272;28;20275;-85
2024/01/31 03:24:38;;;;;;;41.43;22.50;;;8.40;1.00;;;;;;4991339;28;20187;-87
2024/01/31 03:27:04;;;;;;;36.77;19.33;;;8.30;1.00;;;;;;4989892;28;20215;-87
2024/01/31 03:29:29;;;;;;;36.67;18.27;;;8.30;1.00;;;;;;4992784;28;20194;-87
2024/01/31 03:31:55;;;;;;;34.17;17.70;;;8.30;1.00;;;;;;4986599;28;20530;-87
2024/01/31 03:34:20;;;;;;;27.37;16.07;;;8.30;1.00;;;;;;4988813;28;20271;-87
2024/01/31 03:36:46;;;;;;;29.20;15.80;;;8.20;1.00;;;;;;4989267;28;20683;-87
2024/01/31 03:39:12;;;;;;;40.83;17.63;;;8.20;1.00;;;;;;4990225;28;20223;-87
2024/01/31 03:41:44;;;;;;;31.30;15.60;;;8.20;1.00;;;;;;4990413;28;20180;-87
2024/01/31 03:44:10;;;;;;;27.33;13.90;;;8.20;1.00;;;;;;4988473;28;20187;-87
2024/01/31 03:46:35;;;;;;;33.83;16.90;;;8.30;1.00;;;;;;4985977;28;21003;-87
2024/01/31 03:49:01;;;;;;;30.30;16.37;;;8.20;1.00;;;;;;4990322;28;20455;-87
2024/01/31 03:51:26;;;;;;;27.00;14.90;;;8.30;1.00;;;;;;4988591;28;20185;-87
2024/01/31 03:53:52;;;;;;;32.00;14.83;;;8.40;1.00;;;;;;4991030;28;20685;-87
2024/01/31 03:56:18;;;;;;;24.53;13.00;;;8.40;1.00;;;;;;4989126;28;20270;-87
2024/01/31 03:58:44;;;;;;;21.40;11.73;;;8.40;1.00;;;;;;4989102;28;20291;-87
2024/01/31 04:01:15;;;;;;;17.43;10.13;;;8.50;1.00;;;;;;5005979;28;21080;-87
2024/01/31 04:03:43;;;;;;;29.63;11.70;;;8.40;1.00;;;;;;4983459;28;20192;-87
2024/01/31 04:06:08;;;;;;;21.83;11.13;;;8.50;1.00;;;;;;4989789;28;21043;-87
2024/01/31 04:08:34;;;;;;;19.20;10.13;;;8.50;1.00;;;;;;4986825;28;20491;-87
2024/01/31 04:10:59;;;;;;;20.27;10.97;;;8.50;1.00;;;;;;4990761;28;20555;-88
2024/01/31 04:13:25;;;;;;;13.43;8.67;;;8.40;1.00;;;;;;4989207;28;20188;-87
2024/01/31 04:15:50;;;;;;;22.30;10.90;;;8.40;1.00;;;;;;4989786;28;20188;-87
2024/01/31 04:18:15;;;;;;;20.27;11.73;;;8.40;1.00;;;;;;5002225;28;20600;-88
2024/01/31 04:20:41;;;;;;;20.00;9.83;;;8.30;1.00;;;;;;4990215;28;20215;-87
2024/01/31 04:23:07;;;;;;;22.50;10.90;;;8.20;1.00;;;;;;4990260;28;20270;-87
2024/01/31 04:25:33;;;;;;;20.50;10.73;;;8.20;1.00;;;;;;4992056;28;20662;-87
2024/01/31 04:27:58;;;;;;;24.53;11.20;;;8.20;1.00;;;;;;4991733;28;20509;-87
2024/01/31 04:30:24;;;;;;;23.77;10.37;;;8.10;1.00;;;;;;4989771;28;20520;-88
2024/01/31 04:32:50;;;;;;;21.77;11.13;;;8.10;1.00;;;;;;4994295;28;20584;-87
2024/01/31 04:35:15;;;;;;;32.00;10.33;;;8.10;1.00;;;;;;4991767;28;20451;-87
2024/01/31 04:37:41;;;;;;;18.23;10.17;;;8.20;1.00;;;;;;4991289;28;20693;-87
2024/01/31 04:40:07;;;;;;;21.63;11.93;;;8.20;1.00;;;;;;4992578;28;20179;-87
2024/01/31 04:42:33;;;;;;;23.50;12.73;;;8.30;1.00;;;;;;4993406;28;20185;-87
2024/01/31 04:44:59;;;;;;;25.87;12.60;;;8.30;1.00;;;;;;4993781;28;20437;-87
2024/01/31 04:47:25;;;;;;;28.73;13.50;;;8.40;1.00;;;;;;4993521;28;20701;-87
2024/01/31 04:49:58;;;;;;;31.63;12.47;;;8.40;1.00;;;;;;4990503;28;20176;-89
2024/01/31 04:52:24;;;;;;;23.20;12.90;;;8.40;1.00;;;;;;4993659;28;20973;-87
2024/01/31 04:54:53;;;;;;;24.10;13.70;;;8.40;1.00;;;;;;4989869;28;20431;-87
2024/01/31 04:57:19;;;;;;;25.23;12.63;;;8.40;1.00;;;;;;4990537;28;20494;-87
2024/01/31 04:59:44;;;;;;;32.37;10.77;;;8.40;1.00;;;;;;4992242;28;20848;-87
2024/01/31 05:02:10;;;;;;;21.37;11.20;;;8.40;1.00;;;;;;4996049;28;20548;-87
2024/01/31 05:04:36;;;;;;;22.90;10.97;;;8.40;1.00;;;;;;4993921;28;20666;-86
2024/01/31 05:07:02;;;;;;;20.40;10.77;;;8.40;1.00;;;;;;4993642;28;20284;-86
2024/01/31 05:09:28;;;;;;;23.90;10.93;;;8.40;1.00;;;;;;4992884;28;20454;-87
2024/01/31 05:11:54;;;;;;;19.27;10.90;;;8.40;1.00;;;;;;4993451;28;20831;-87
2024/01/31 05:14:19;;;;;;;20.13;9.93;;;8.40;1.00;;;;;;4992594;28;20184;-86
2024/01/31 05:16:45;;;;;;;18.00;9.80;;;8.40;1.00;;;;;;4992679;28;20239;-87
2024/01/31 05:19:11;;;;;;;20.43;9.90;;;8.40;1.00;;;;;;4993293;28;20215;-87
2024/01/31 05:21:50;;;;;;;21.10;10.03;;;8.30;1.00;;;;;;4991681;28;20203;-87
2024/01/31 05:24:17;;;;;;;138.17;45.73;;;8.30;1.00;;;;;;4992608;28;20969;-87
2024/01/31 05:26:43;;;;;;;24.47;9.43;;;8.20;1.00;;;;;;4991775;28;20451;-87
2024/01/31 05:29:09;;;;;;;26.73;11.60;;;8.30;1.00;;;;;;4992131;28;20463;-87
2024/01/31 05:31:35;;;;;;;30.17;14.77;;;8.30;1.00;;;;;;4993153;28;20504;-87
2024/01/31 05:34:01;;;;;;;42.10;17.57;;;8.30;1.00;;;;;;4992258;28;20945;-87
2024/01/31 05:36:26;;;;;;;34.47;17.90;;;8.40;1.00;;;;;;4986189;28;20220;-87
2024/01/31 05:38:52;;;;;;;25.07;12.80;;;8.40;1.00;;;;;;4991693;28;20227;-87
2024/01/31 05:41:17;;;;;;;25.37;11.90;;;8.40;1.00;;;;;;4992048;28;20191;-87
2024/01/31 05:43:43;;;;;;;82.33;34.97;;;8.40;1.00;;;;;;4992805;28;20199;-86
2024/01/31 05:46:09;;;;;;;34.67;16.27;;;8.40;1.00;;;;;;4989385;28;20302;-87
2024/01/31 05:48:35;;;;;;;23.20;12.53;;;8.40;1.00;;;;;;4985171;28;20943;-87
2024/01/31 05:51:00;;;;;;;24.77;10.03;;;8.40;1.00;;;;;;4992305;28;20196;-88
2024/01/31 05:53:26;;;;;;;31.47;13.30;;;8.40;1.00;;;;;;4988084;28;20534;-87
2024/01/31 05:55:51;;;;;;;29.57;11.50;;;8.40;1.00;;;;;;4991599;28;20194;-87
2024/01/31 05:58:23;;;;;;;20.97;10.17;;;8.40;1.00;;;;;;4989631;28;20238;-88
2024/01/31 06:00:49;;;;;;;20.70;9.23;;;8.40;1.00;;;;;;4991496;28;20184;-87
2024/01/31 06:03:15;;;;;;;15.33;9.40;;;8.40;1.00;;;;;;4991759;28;20437;-87
2024/01/31 06:05:41;;;;;;;16.63;8.67;;;8.40;1.00;;;;;;4992281;28;20499;-87
2024/01/31 06:08:07;;;;;;;19.93;9.90;;;8.40;1.00;;;;;;4986767;28;20490;-87
2024/01/31 06:10:33;;;;;;;15.20;9.13;;;8.40;1.00;;;;;;5006471;28;20433;-87
2024/01/31 06:12:58;;;;;;;19.80;9.20;;;8.40;1.00;;;;;;4979593;28;20181;-87
2024/01/31 06:15:25;;;;;;;18.60;8.77;;;8.40;1.00;;;;;;4985244;28;20187;-86
2024/01/31 06:17:51;;;;;;;14.27;9.37;;;8.30;1.00;;;;;;4991817;28;20196;-87
2024/01/31 06:20:16;;;;;;;21.00;9.40;;;8.30;1.00;;;;;;4991428;28;20812;-87
2024/01/31 06:22:41;;;;;;;19.70;9.97;;;8.40;1.00;;;;;;4992500;28;20733;-87
2024/01/31 06:25:07;;;;;;;15.23;9.40;;;8.40;1.00;;;;;;4991464;28;20271;-87
2024/01/31 06:27:35;;;;;;;17.30;9.20;;;8.40;1.00;;;;;;4991283;28;20297;-87
2024/01/31 06:30:00;;;;;;;18.90;10.70;;;8.40;1.00;;;;;;4983354;28;20207;-86
2024/01/31 06:32:31;;;;;;;13.83;9.00;;;8.30;1.00;;;;;;4998353;28;20439;-87
2024/01/31 06:34:58;;;;;;;15.43;9.77;;;8.30;1.00;;;;;;4991529;28;20219;-87
2024/01/31 06:37:23;;;;;;;17.43;10.60;;;8.30;1.00;;;;;;4981655;28;20579;-88
2024/01/31 06:39:49;;;;;;;15.70;9.77;;;8.30;1.00;;;;;;4991365;28;20556;-87
2024/01/31 06:42:14;;;;;;;20.53;10.70;;;8.30;1.00;;;;;;4993165;28;20188;-87
2024/01/31 06:44:40;;;;;;;20.83;11.40;;;8.40;1.00;;;;;;4992894;28;20184;-87
2024/01/31 06:47:05;;;;;;;20.40;10.03;;;8.30;1.00;;;;;;4989990;28;20247;-88
2024/01/31 06:49:31;;;;;;;17.13;8.70;;;8.20;1.00;;;;;;4991910;28;20186;-87
2024/01/31 06:51:57;;;;;;;16.43;10.30;;;8.20;1.00;;;;;;4991702;28;20714;-87
2024/01/31 06:54:22;;;;;;;16.60;9.30;;;8.20;1.00;;;;;;4992287;28;20506;-87
2024/01/31 06:56:48;;;;;;;18.83;10.40;;;8.20;1.00;;;;;;4990219;28;20279;-87
2024/01/31 06:59:13;;;;;;;14.57;9.00;;;8.10;1.00;;;;;;4994101;28;20216;-86
2024/01/31 07:01:39;;;;;;;15.70;9.00;;;8.10;1.00;;;;;;4985652;28;20206;-87
2024/01/31 07:04:04;;;;;;;17.10;9.33;;;8.20;1.00;;;;;;4985646;28;20200;-87
2024/01/31 07:06:30;;;;;;;18.10;8.57;;;8.10;1.00;;;;;;4992372;28;20732;-88
2024/01/31 07:08:56;;;;;;;16.93;8.20;;;8.10;1.00;;;;;;4987331;28;20196;-87
2024/01/31 07:11:21;;;;;;;13.60;7.33;;;8.10;99.90;;;;;;4988910;28;20650;-87
2024/01/31 07:13:47;;;;;;;17.60;8.87;;;8.10;1.00;;;;;;4992358;28;20263;-88
2024/01/31 07:16:12;;;;;;;14.10;7.10;;;8.20;1.00;;;;;;4990449;28;20238;-87
2024/01/31 07:18:42;;;;;;;20.70;7.27;;;8.20;1.00;;;;;;4988757;28;20211;-87
2024/01/31 07:21:08;;;;;;;12.13;7.10;;;8.30;99.90;;;;;;4989250;28;20271;-87
2024/01/31 07:23:35;;;;;;;15.87;7.33;;;8.30;99.90;;;;;;4989279;28;20475;-87
2024/01/31 07:26:00;;;;;;;15.27;6.37;;;8.40;99.90;;;;;;4983168;28;20888;-86
2024/01/31 07:28:26;;;;;;;18.33;8.03;;;8.40;99.90;;;;;;4992085;28;20439;-86
2024/01/31 07:30:52;;;;;;;9.43;5.90;;;8.40;99.90;;;;;;4994154;28;20168;-87
2024/01/31 07:33:19;;;;;;;14.33;5.50;;;8.40;99.90;;;;;;4992868;28;20218;-85
2024/01/31 07:35:44;;;;;;;9.37;5.70;;;8.40;99.90;;;;;;4990310;28;20677;-85
2024/01/31 07:38:10;;;;;;;22.10;6.93;;;8.40;99.90;;;;;;4984424;28;20557;-86
2024/01/31 07:40:36;;;;;;;12.97;5.73;;;8.40;99.90;;;;;;4991615;28;20267;-86
2024/01/31 07:43:01;;;;;;;15.63;6.93;;;8.40;99.90;;;;;;4990382;28;20188;-85
2024/01/31 07:45:27;;;;;;;15.77;5.37;;;8.40;99.90;;;;;;4986450;28;20196;-86
2024/01/31 07:47:53;;;;;;;10.00;6.00;;;8.40;99.90;;;;;;4988643;28;21033;-86
2024/01/31 07:50:18;;;;;;;13.77;5.73;;;8.40;99.90;;;;;;4983267;28;20180;-87
2024/01/31 07:52:44;;;;;;;9.63;4.30;;;8.40;99.90;;;;;;4984825;28;20847;-86
2024/01/31 07:55:10;;;;;;;8.60;3.80;;;8.40;99.90;;;;;;4988053;28;20180;-86
2024/01/31 07:57:36;;;;;;;5.67;3.67;;;8.40;30.10;;;;;;4990521;28;20199;-86
2024/01/31 08:00:03;;;;;;;11.00;3.97;;;8.40;21.10;;;;;;4994352;28;20435;-86
2024/01/31 08:02:28;;;;;;;6.60;3.50;;;8.40;32.50;;;;;;4988367;28;20593;-85
2024/01/31 08:04:54;;;;;;;9.53;4.30;;;8.40;11.90;;;;;;4999359;28;20450;-85
2024/01/31 08:07:20;;;;;;;5.10;3.47;;;8.40;1.00;;;;;;4995646;28;20203;-85
2024/01/31 08:09:46;;;;;;;9.50;4.10;;;8.40;1.00;;;;;;4992284;28;20423;-85
2024/01/31 08:12:11;;;;;;;6.50;4.27;;;8.40;1.00;;;;;;4996099;28;20458;-85
2024/01/31 08:14:37;;;;;;;9.00;4.53;;;8.40;1.00;;;;;;4989611;28;20176;-85
2024/01/31 08:17:03;;;;;;;8.13;4.53;;;8.40;9.80;;;;;;4994192;28;20224;-85
2024/01/31 08:19:28;;;;;;;9.40;5.20;;;8.40;39.50;;;;;;4990826;28;20223;-85
2024/01/31 08:21:53;;;;;;;11.40;4.90;;;8.40;1.00;;;;;;4989903;28;20196;-85
2024/01/31 08:24:20;;;;;;;13.30;5.47;;;8.40;1.00;;;;;;4992804;28;20191;-85
2024/01/31 08:26:45;;;;;;;12.87;6.77;;;8.50;1.00;;;;;;4989649;28;20299;-85
2024/01/31 08:29:11;;;;;;;11.27;6.70;;;8.50;1.00;;;;;;4995456;28;20478;-85
2024/01/31 08:31:36;;;;;;;13.83;7.57;;;8.50;1.80;;;;;;4991896;28;20185;-85
2024/01/31 08:34:02;;;;;;;11.63;7.10;;;8.50;24.60;;;;;;4992291;28;20195;-85
2024/01/31 08:36:28;;;;;;;10.90;6.63;;;8.60;70.00;;;;;;4995471;28;20220;-85
2024/01/31 08:38:53;;;;;;;16.10;6.23;;;8.50;95.80;;;;;;4993904;28;20519;-85
2024/01/31 08:41:19;;;;;;;11.33;5.67;;;8.60;72.30;;;;;;4993083;28;20673;-84
2024/01/31 08:43:45;;;;;;;12.50;6.70;;;8.60;19.00;;;;;;4997166;28;20670;-85
2024/01/31 08:46:11;;;;;;;16.50;7.73;;;8.60;1.00;;;;;;4992624;28;20551;-84
2024/01/31 08:48:38;;;;;;;17.30;8.50;;;8.60;14.00;;;;;;4992809;28;20446;-84
2024/01/31 08:51:05;;;;;;;14.13;7.60;;;8.60;10.80;;;;;;4994941;28;20186;-85
2024/01/31 08:53:31;;;;;;;14.50;8.90;;;8.60;96.70;;;;;;4995348;28;20469;-85
2024/01/31 08:55:57;;;;;;;17.40;7.70;;;8.60;99.90;;;;;;4995978;28;20423;-85
2024/01/31 08:58:22;;;;;;;16.33;9.53;;;8.60;99.90;;;;;;4994446;28;20639;-85
2024/01/31 09:00:48;;;;;;;20.97;10.20;;;8.60;99.90;;;;;;4993761;28;20184;-87
2024/01/31 09:03:13;;;;;;;17.50;10.07;;;8.60;99.90;;;;;;4990398;28;20271;-85
2024/01/31 09:05:39;;;;;;;16.33;9.20;;;8.70;99.90;;;;;;4994204;28;20300;-85
2024/01/31 09:08:05;;;;;;;19.90;11.50;;;8.70;99.90;;;;;;4992682;28;20289;-85
2024/01/31 09:10:30;;;;;;;20.63;10.33;;;8.70;99.90;;;;;;4990837;28;20180;-85
2024/01/31 09:12:56;;;;;;;23.70;11.43;;;8.80;99.90;;;;;;4992986;28;20971;-85
2024/01/31 09:15:21;;;;;;;19.73;11.23;;;8.80;99.90;;;;;;4994691;28;20258;-85
2024/01/31 09:17:47;;;;;;;26.33;12.63;;;8.90;99.90;;;;;;4993790;28;20682;-86
2024/01/31 09:20:14;;;;;;;23.20;12.77;;;8.90;99.90;;;;;;4992484;28;20193;-85
2024/01/31 09:22:40;;;;;;;29.27;14.37;;;9.00;99.90;;;;;;4991036;28;20439;-86
2024/01/31 09:25:06;;;;;;;28.33;13.97;;;9.00;99.60;;;;;;4982345;28;20450;-86
2024/01/31 09:27:31;;;;;;;25.47;15.00;;;9.00;98.80;;;;;;4986308;28;20468;-86
2024/01/31 09:29:57;;;;;;;26.27;14.40;;;9.00;82.50;;;;;;4992986;28;20445;-87
2024/01/31 09:32:22;;;;;;;28.20;15.87;;;9.10;99.90;;;;;;4994166;28;20192;-86
2024/01/31 09:34:48;;;;;;;29.23;14.70;;;9.10;99.90;;;;;;4981396;28;20189;-85
2024/01/31 09:37:13;;;;;;;24.27;14.33;;;9.20;99.90;;;;;;4994126;28;20550;-85
2024/01/31 09:39:39;;;;;;;26.50;16.30;;;9.20;98.70;;;;;;4992051;28;20593;-85
2024/01/31 09:42:05;;;;;;;27.87;15.90;;;9.20;93.50;;;;;;4987625;28;20183;-85
2024/01/31 09:44:32;;;;;;;28.43;15.20;;;9.30;83.20;;;;;;4997444;28;20180;-86
2024/01/31 09:46:59;;;;;;;28.37;15.20;;;9.30;76.30;;;;;;4989691;28;20518;-85
2024/01/31 09:49:25;;;;;;;28.87;16.83;;;9.30;53.60;;;;;;4987155;28;20455;-85
2024/01/31 09:51:57;;;;;;;33.37;16.80;;;9.40;53.90;;;;;;4990783;28;20927;-85
2024/01/31 09:54:24;;;;;;;34.27;16.50;;;9.50;29.60;;;;;;4994714;28;20427;-85
2024/01/31 09:56:49;;;;;;;32.87;17.47;;;9.60;9.60;;;;;;4988166;28;20514;-85
2024/01/31 09:59:15;;;;;;;35.70;20.10;;;9.70;1.00;;;;;;4990070;28;20542;-85
2024/01/31 10:01:42;;;;;;;31.80;18.10;;;9.70;1.00;;;;;;4989968;28;20366;-86
2024/01/31 10:04:07;;;;;;;32.20;18.17;;;9.80;1.00;;;;;;4993964;28;20196;-85
2024/01/31 10:06:33;;;;;;;37.77;18.70;;;9.80;1.00;;;;;;4993747;28;20536;-85
2024/01/31 10:08:58;;;;;;;30.87;17.67;;;9.90;1.00;;;;;;4994344;28;20212;-85
2024/01/31 10:11:27;;;;;;;45.43;22.17;;;9.90;1.00;;;;;;4994071;28;20212;-85
2024/01/31 10:13:55;;;;;;;34.63;19.40;;;10.00;1.00;;;;;;4989521;28;20596;-85
2024/01/31 10:16:20;;;;;;;32.90;16.13;;;10.00;1.00;;;;;;4994325;28;20447;-86
2024/01/31 10:18:46;;;;;;;31.30;18.07;;;10.00;99.90;;;;;;4994453;28;20467;-85
2024/01/31 10:21:11;;;;;;;34.17;19.60;;;10.10;99.90;;;;;;4992968;28;20542;-85
2024/01/31 10:23:37;;;;;;;32.97;20.50;;;10.10;99.90;;;;;;4992465;28;20202;-85
2024/01/31 10:26:03;;;;;;;38.00;18.30;;;10.20;99.90;;;;;;4993637;28;20203;-85
2024/01/31 10:28:29;;;;;;;30.17;18.00;;;10.10;1.00;;;;;;4992882;28;20204;-86
2024/01/31 10:30:55;;;;;;;41.67;22.93;;;10.10;1.00;;;;;;4992047;28;20274;-85
2024/01/31 10:33:22;;;;;;;32.70;20.33;;;10.20;1.00;;;;;;4992495;28;20435;-85
2024/01/31 10:35:48;;;;;;;37.63;20.63;;;10.20;1.00;;;;;;4993238;28;20427;-87
2024/01/31 10:38:14;;;;;;;28.97;17.63;;;10.20;1.00;;;;;;4987325;28;20454;-85
2024/01/31 10:40:43;;;;;;;25.90;16.00;;;10.30;1.00;;;;;;4988950;28;20424;-85
2024/01/31 10:43:09;;;;;;;25.37;16.53;;;10.30;99.90;;;;;;4991254;28;20298;-85
2024/01/31 10:45:35;;;;;;;22.83;15.00;;;10.30;1.00;;;;;;4993646;28;20416;-85
2024/01/31 10:48:04;;;;;;;25.03;16.30;;;10.30;99.90;;;;;;4993296;28;20435;-85
2024/01/31 10:50:30;;;;;;;21.93;14.10;;;10.30;1.00;;;;;;4988721;28;20430;-85
2024/01/31 10:52:58;;;;;;;25.73;13.60;;;10.30;1.00;;;;;;4990978;28;20416;-85
2024/01/31 10:55:24;;;;;;;25.37;15.57;;;10.40;99.90;;;;;;4992207;28;21178;-86
2024/01/31 10:57:50;;;;;;;17.47;12.37;;;10.40;99.90;;;;;;4991166;28;20877;-87
2024/01/31 11:00:28;;;;;;;18.43;12.10;;;10.40;1.00;;;;;;4985421;28;20415;-86
2024/01/31 11:02:55;;;;;;;15.07;11.40;;;10.40;1.00;;;;;;4988685;28;20541;-85
2024/01/31 11:05:20;;;;;;;15.13;10.77;;;10.50;1.00;;;;;;4985116;28;20442;-85
2024/01/31 11:07:46;;;;;;;17.87;11.83;;;10.50;1.00;;;;;;4993422;28;21006;-85
2024/01/31 11:10:22;;;;;;;15.50;10.80;;;10.50;1.00;;;;;;4989672;28;20200;-85
2024/01/31 11:13:02;;;;;;;14.67;10.10;;;10.60;99.90;;;;;;4995687;28;20410;-85
2024/01/31 11:15:32;;;;;;;15.70;8.80;;;10.70;1.00;;;;;;4989670;28;20881;-85
2024/01/31 11:18:09;;;;;;;11.83;8.40;;;10.70;17.10;;;;;;4989538;28;20463;-86
2024/01/31 11:20:40;;;;;;;13.67;9.83;;;10.70;1.00;;;;;;4994708;28;20430;-87
2024/01/31 11:23:06;;;;;;;13.43;9.47;;;10.70;1.00;;;;;;4989241;28;20420;-85
2024/01/31 11:25:36;;;;;;;10.93;7.63;;;10.70;1.00;;;;;;4990120;28;20518;-86
2024/01/31 11:28:04;;;;;;;10.37;7.47;;;10.70;1.00;;;;;;4992110;28;20466;-85
2024/01/31 11:30:31;;;;;;;17.30;9.70;;;10.60;99.90;;;;;;4990366;28;20428;-86
2024/01/31 11:32:57;;;;;;;14.23;7.10;;;10.50;99.90;;;;;;4989375;28;20481;-85
2024/01/31 11:35:25;;;;;;;10.93;7.30;;;10.50;99.90;;;;;;4994220;28;20799;-85
2024/01/31 11:37:51;;;;;;;12.03;7.47;;;10.50;99.90;;;;;;4991330;28;20567;-85
2024/01/31 11:40:19;;;;;;;9.90;7.47;;;10.40;99.90;;;;;;4991616;28;20415;-85
2024/01/31 11:42:45;;;;;;;11.13;7.73;;;10.40;99.90;;;;;;4993316;28;20554;-85
2024/01/31 11:45:10;;;;;;;12.60;7.83;;;10.40;1.00;;;;;;4990749;28;20512;-84
2024/01/31 11:47:37;;;;;;;8.83;7.53;;;10.30;1.00;;;;;;4994112;28;20546;-85
2024/01/31 11:50:04;;;;;;;12.00;7.97;;;10.30;1.00;;;;;;4989993;28;20181;-85
2024/01/31 11:52:30;;;;;;;11.10;8.57;;;10.30;1.00;;;;;;4993712;28;20758;-85
2024/01/31 11:54:56;;;;;;;12.00;9.07;;;10.30;99.90;;;;;;4988416;28;20424;-84
2024/01/31 11:57:21;;;;;;;12.70;8.07;;;10.30;99.90;;;;;;4991130;28;20434;-85
2024/01/31 11:59:47;;;;;;;14.73;8.73;;;10.20;99.90;;;;;;4990716;28;20214;-87
2024/01/31 12:02:12;;;;;;;11.53;8.00;;;10.20;99.90;;;;;;4991382;28;20712;-85
2024/01/31 12:04:38;;;;;;;11.97;9.60;;;10.20;99.90;;;;;;4992419;28;20215;-84
2024/01/31 12:07:06;;;;;;;10.60;8.90;;;10.10;99.90;;;;;;4987564;28;20208;-88
2024/01/31 12:09:34;;;;;;;12.40;10.27;;;10.00;1.00;;;;;;4988971;28;20194;-85
2024/01/31 12:11:59;;;;;;;12.50;8.83;;;9.90;1.00;;;;;;4991209;28;20418;-85
2024/01/31 12:14:25;;;;;;;11.50;9.73;;;9.90;1.00;;;;;;4990292;28;20522;-85
2024/01/31 12:16:51;;;;;;;13.93;9.20;;;9.80;1.00;;;;;;4989671;28;20653;-85
2024/01/31 12:19:19;;;;;;;12.90;10.20;;;9.80;1.00;;;;;;4990095;28;21353;-85
2024/01/31 12:21:45;;;;;;;11.17;9.00;;;9.80;1.00;;;;;;4992208;28;20191;-85
2024/01/31 12:24:11;;;;;;;10.17;8.57;;;9.80;1.00;;;;;;4989307;28;20451;-86
2024/01/31 12:26:37;;;;;;;12.20;8.80;;;9.80;1.00;;;;;;4991252;28;20208;-87
2024/01/31 12:29:02;;;;;;;12.03;9.73;;;9.80;1.00;;;;;;4990791;28;20208;-87
2024/01/31 12:31:28;;;;;;;29.17;11.13;;;9.90;1.00;;;;;;4990220;28;20550;-85
2024/01/31 12:33:54;;;;;;;13.30;10.10;;;9.90;1.00;;;;;;4988567;28;20721;-85
2024/01/31 12:36:23;;;;;;;15.50;10.43;;;9.90;1.00;;;;;;4989639;28;20218;-86
2024/01/31 12:38:48;;;;;;;12.90;9.13;;;9.90;1.00;;;;;;4993173;28;20203;-85